Portada
METAR-TAF:

METAR-TAF

Aeroports :

Banská Bystrica, Eslovàquia

latitud: 48-38-17N, longitud: 019-08-03E, altitud: 318 m

Observació

L'informe es va fer fa 24 minuts, a les 01:00 UTC
Vent 1 kt del Nord
Temperatura -8°C
Humitat 92%
Pressió 1022 hPa
Visibilitat 10 km o més
sense núvols per sota de 1500 mi sense presència de cumulonimbus.

METAR: LZSL 250100Z 01001KT CAVOK M08/M09 Q1022

Hora: 02:24 (01:24 UTC)

Pronòstic

L'informe es va fer fa 2 hores i 24 minuts, a les 23:00 UTC
Pronòstic vàlid del 25 a les 00 UTC al 25 a les 09 UTC
Vent 2 kt amb direcció variable
Visibilitat: 7000 m
Evolucionant progressivament
l' 25 a les 00 UTC al 25 a les 03 UTC
Visibilitat: 1500 m
Cel ennuvolat a una alçada de 500 ft
boira en bancs, boirina
Temporalment
l' 25 a les 00 UTC al 25 a les 06 UTC
Visibilitat: 0150 m
Cel cobert a una alçada de 100 ft
boira gebradora

TAF: LZSL 242300Z 2500/2509 VRB02KT 7000 NSC BECMG 2500/2503 1500 BCFG BR BKN005 TEMPO 2500/2506 0150 FZFG OVC001

Observacions i pronòstics meteorològics de més de 4000 aeroports (METAR i TAF).

Les estacions disponibles són els punts grocs i vermells al mapa.

Posi el ratolí al punt desitjat per veure el nom de l'estació.

Feu clic per veure les observacions i els pronòstics meteorològics.

Per canviar el mapa: feu clic els botons verds amb una creu de color negre per apropar; al botó verd amb un guió per allunyar la imatge; o en les fletxes verdes per a mapes adjacents.


METAR-TAF: